createdAt,value
2022-10-11T00:01:16.190Z,77548.88
2022-10-11T00:05:17.949Z,77553.03
2022-10-11T00:09:19.493Z,77567.56
2022-10-11T00:13:22.230Z,77573.78
2022-10-11T00:17:24.985Z,77575.88
2022-10-11T00:21:26.905Z,77584.19
2022-10-11T00:25:28.450Z,77582.09
2022-10-11T00:29:29.881Z,77586.25
2022-10-11T00:33:32.753Z,77588.31
2022-10-11T00:37:36.014Z,77586.25
2022-10-11T00:41:37.615Z,77590.41
2022-10-11T00:46:25.565Z,77590.41
2022-10-11T00:50:32.853Z,77596.63
2022-10-11T00:54:38.061Z,77621.56
2022-10-11T00:58:41.105Z,77640.25
2022-10-11T01:02:43.309Z,77644.41
2022-10-11T01:06:47.558Z,77642.31
2022-10-11T01:10:49.560Z,77644.41
2022-10-11T01:15:05.831Z,77663.09
2022-10-11T01:19:19.693Z,77652.72
2022-10-11T01:23:50.002Z,77658.94
2022-10-11T01:28:07.378Z,77673.47
2022-10-11T01:32:16.213Z,77669.31
2022-10-11T01:36:23.810Z,77679.72
2022-10-11T01:40:31.629Z,77681.78
2022-10-11T01:44:35.520Z,77673.47
2022-10-11T01:48:49.142Z,77685.94
2022-10-11T01:52:51.517Z,77690.09
2022-10-11T01:57:15.057Z,77692.16
2022-10-11T02:01:27.010Z,77698.41
2022-10-11T02:05:37.713Z,77706.72
2022-10-11T02:09:45.489Z,77712.94
2022-10-11T02:13:54.176Z,77731.63
2022-10-11T02:17:57.849Z,77739.94
2022-10-11T02:22:06.414Z,77739.94
2022-10-11T02:26:11.233Z,77742.00
2022-10-11T02:30:13.962Z,77739.94
2022-10-11T02:34:20.370Z,77746.16
2022-10-11T02:38:26.022Z,77746.16
2022-10-11T02:42:30.858Z,77742.00
2022-10-11T02:46:33.969Z,77731.63
2022-10-11T02:50:35.602Z,77727.47
2022-10-11T02:54:38.325Z,77729.56
2022-10-11T02:58:41.617Z,77725.41
2022-10-11T03:02:43.054Z,77725.41
2022-10-11T03:06:44.618Z,77727.47
2022-10-11T03:10:47.357Z,77731.63
2022-10-11T03:14:48.949Z,77744.09
2022-10-11T03:18:51.069Z,77748.25
2022-10-11T03:22:52.597Z,77762.78
2022-10-11T03:26:55.481Z,77781.47
2022-10-11T03:30:57.433Z,77773.16
2022-10-11T03:34:59.012Z,77781.47
2022-10-11T03:39:00.528Z,77789.78
2022-10-11T03:43:03.358Z,77793.94
2022-10-11T03:47:05.074Z,77766.94
2022-10-11T03:51:06.670Z,77783.56
2022-10-11T03:55:09.366Z,77827.19
2022-10-11T03:59:12.126Z,77864.56
2022-10-11T04:03:13.677Z,77881.19
2022-10-11T04:07:15.441Z,77891.56
2022-10-11T04:11:17.025Z,77897.78
2022-10-11T04:15:19.801Z,77912.34
2022-10-11T04:19:21.306Z,77910.25
2022-10-11T04:23:22.782Z,77893.63
2022-10-11T04:27:26.730Z,77893.63
2022-10-11T04:31:30.194Z,77897.78
2022-10-11T04:35:31.837Z,77893.63
2022-10-11T04:39:33.413Z,77914.41
2022-10-11T04:43:35.821Z,77931.03
2022-10-11T04:47:38.542Z,77945.56
2022-10-11T04:51:39.931Z,77960.09
2022-10-11T04:55:41.300Z,77964.25
2022-10-11T04:59:45.487Z,77968.41
2022-10-11T05:03:52.250Z,77980.88
2022-10-11T05:07:54.028Z,77976.72
2022-10-11T05:11:55.620Z,77991.25
2022-10-11T05:15:57.637Z,77993.34
2022-10-11T05:20:00.589Z,78018.25
2022-10-11T05:24:01.983Z,78020.34
2022-10-11T05:28:03.796Z,78032.81
2022-10-11T05:32:05.405Z,78034.88
2022-10-11T05:36:09.144Z,78032.81
2022-10-11T05:40:11.543Z,78057.72
2022-10-11T05:44:13.119Z,78068.09
2022-10-11T05:48:14.718Z,78070.19
2022-10-11T05:52:17.462Z,78072.25
2022-10-11T05:56:20.702Z,78093.03
2022-10-11T06:00:23.677Z,78082.66
2022-10-11T06:04:25.259Z,78080.56
2022-10-11T06:08:28.066Z,78088.88
2022-10-11T06:12:30.168Z,78097.19
2022-10-11T06:16:31.583Z,78080.56
2022-10-11T06:20:33.731Z,78076.41
2022-10-11T06:24:36.655Z,78080.56
2022-10-11T06:28:38.172Z,78088.88
2022-10-11T06:32:39.981Z,78080.56
2022-10-11T06:36:41.387Z,78105.50
2022-10-11T06:40:46.452Z,78093.03
2022-10-11T06:44:47.838Z,78088.88
2022-10-11T06:48:50.368Z,78090.97
2022-10-11T06:52:51.954Z,78078.50
2022-10-11T06:56:54.950Z,78086.81
2022-10-11T07:01:00.641Z,78068.09
2022-10-11T07:05:02.250Z,78034.88
2022-10-11T07:09:03.906Z,78022.41
2022-10-11T07:13:06.898Z,77987.09
2022-10-11T07:17:08.490Z,77939.34
2022-10-11T07:21:12.654Z,77910.25
2022-10-11T07:25:14.210Z,77889.47
2022-10-11T07:29:17.326Z,77793.94
2022-10-11T07:33:18.780Z,77760.72
2022-10-11T07:37:20.230Z,77760.72
2022-10-11T07:41:21.763Z,77804.31
2022-10-11T07:45:24.815Z,77785.63
2022-10-11T07:49:26.495Z,77806.41
2022-10-11T07:53:27.914Z,77752.41
2022-10-11T07:57:29.507Z,77752.41
2022-10-11T08:01:34.029Z,77781.47
2022-10-11T08:05:37.838Z,77775.25
2022-10-11T08:09:39.733Z,77808.47
2022-10-11T08:13:41.333Z,77769.00
2022-10-11T08:17:44.279Z,77750.31
2022-10-11T08:21:45.660Z,77702.56
2022-10-11T08:25:48.522Z,77702.56
2022-10-11T08:29:50.108Z,77652.72
2022-10-11T08:33:53.125Z,77692.16
2022-10-11T08:37:56.983Z,77677.63
2022-10-11T08:42:02.623Z,77700.47
2022-10-11T08:46:07.848Z,77677.63
2022-10-11T08:50:18.104Z,77731.63
2022-10-11T08:54:28.029Z,77727.47
2022-10-11T08:58:37.845Z,77715.00
2022-10-11T09:03:07.521Z,77696.31
2022-10-11T09:07:20.816Z,77681.78
2022-10-11T09:11:30.546Z,77654.78
2022-10-11T09:15:41.992Z,77648.56
2022-10-11T09:20:01.359Z,77602.88
2022-10-11T09:24:17.853Z,77598.72
2022-10-11T09:28:23.876Z,77561.31
2022-10-11T09:32:30.341Z,77563.41
2022-10-11T09:36:41.365Z,77548.88
2022-10-11T09:40:58.662Z,77499.03
2022-10-11T09:45:01.682Z,77602.88
2022-10-11T09:49:07.325Z,77569.63
2022-10-11T09:53:08.938Z,77511.47
2022-10-11T09:57:23.870Z,77499.03
2022-10-11T10:01:25.576Z,77463.72
2022-10-11T10:05:29.386Z,77457.50
2022-10-11T10:09:31.097Z,77424.25
2022-10-11T10:13:48.132Z,77364.03
2022-10-11T10:17:51.297Z,77262.28
2022-10-11T10:21:55.380Z,77187.50
2022-10-11T10:26:14.133Z,76973.63
2022-10-11T10:30:19.159Z,76946.63
2022-10-11T10:34:24.923Z,76890.56
2022-10-11T10:38:32.662Z,76830.34
2022-10-11T10:42:34.413Z,76855.25
2022-10-11T10:46:48.880Z,76884.34
2022-10-11T10:50:57.513Z,76878.09
2022-10-11T10:55:06.865Z,76718.22
2022-10-11T10:59:26.724Z,76614.41
2022-10-11T11:03:37.311Z,76726.53
2022-10-11T11:07:44.802Z,76641.38
2022-10-11T11:12:00.191Z,76622.69
2022-10-11T11:16:13.770Z,76539.66
2022-10-11T11:20:47.060Z,76512.66
2022-10-11T11:24:59.854Z,76552.09
2022-10-11T11:29:11.225Z,76564.56
2022-10-11T11:33:21.297Z,76514.72
2022-10-11T11:37:28.580Z,76491.91
2022-10-11T11:41:37.232Z,76510.59
2022-10-11T11:45:46.823Z,76493.97
2022-10-11T11:49:56.854Z,76462.81
2022-10-11T11:54:06.999Z,76539.66
2022-10-11T11:58:28.779Z,76498.13
2022-10-11T12:02:41.137Z,76512.66
2022-10-11T12:07:04.116Z,76635.16
2022-10-11T12:11:06.428Z,76784.66
2022-10-11T12:15:19.893Z,76861.50
2022-10-11T12:19:21.506Z,76917.56
2022-10-11T12:23:44.115Z,76803.34
2022-10-11T12:27:49.306Z,76795.03
2022-10-11T12:32:10.520Z,76822.03
2022-10-11T12:36:31.385Z,76797.13
2022-10-11T12:40:36.537Z,76865.66
2022-10-11T12:44:39.423Z,76938.31
2022-10-11T12:48:52.105Z,76984.00
2022-10-11T12:53:01.630Z,77008.94
2022-10-11T12:57:28.763Z,76913.41
2022-10-11T13:01:35.574Z,76952.84
2022-10-11T13:05:45.263Z,76913.41
2022-10-11T13:09:55.570Z,76822.03
2022-10-11T13:14:00.004Z,76819.97
2022-10-11T13:18:03.025Z,76807.50
2022-10-11T13:22:15.052Z,76822.03
2022-10-11T13:26:16.713Z,76846.97
2022-10-11T13:30:24.002Z,76776.34
2022-10-11T13:34:39.721Z,76772.19
2022-10-11T13:38:41.402Z,76736.91
2022-10-11T13:42:43.831Z,76792.97
2022-10-11T13:46:46.112Z,76776.34
2022-10-11T13:51:07.082Z,76772.19
2022-10-11T13:55:24.589Z,76788.81
2022-10-11T13:59:30.603Z,76822.03
2022-10-11T14:03:38.819Z,76842.81
2022-10-11T14:07:47.776Z,76878.09
2022-10-11T14:11:50.109Z,76932.09
2022-10-11T14:16:19.921Z,76940.41
2022-10-11T14:20:30.883Z,76925.88
2022-10-11T14:25:03.994Z,76965.31
2022-10-11T14:29:13.477Z,76971.53
2022-10-11T14:33:17.861Z,76996.47
2022-10-11T14:37:19.511Z,77000.63
2022-10-11T14:41:22.553Z,77008.94
2022-10-11T14:45:27.408Z,77038.00
2022-10-11T14:49:33.381Z,77046.31
2022-10-11T14:53:38.719Z,77054.59
2022-10-11T14:57:44.022Z,77056.69
2022-10-11T15:01:46.601Z,77031.75
2022-10-11T15:05:57.836Z,77033.84
2022-10-11T15:09:59.525Z,77033.84
2022-10-11T15:14:02.424Z,77056.69
2022-10-11T15:18:06.012Z,77116.91
2022-10-11T15:22:07.550Z,77121.06
2022-10-11T15:26:10.352Z,77100.28
2022-10-11T15:30:18.654Z,77131.44
2022-10-11T15:34:20.210Z,77166.75
2022-10-11T15:38:24.895Z,77185.44
2022-10-11T15:42:26.534Z,77212.44
2022-10-11T15:46:29.367Z,77224.91
2022-10-11T15:50:33.736Z,77245.66
2022-10-11T15:54:35.250Z,77249.81
2022-10-11T15:58:38.606Z,77285.13
2022-10-11T16:02:41.367Z,77297.56
2022-10-11T16:06:42.899Z,77310.03
2022-10-11T16:10:44.545Z,77324.56
2022-10-11T16:14:47.346Z,77343.25
2022-10-11T16:18:50.951Z,77349.50
2022-10-11T16:22:54.387Z,77364.03
2022-10-11T16:26:55.925Z,77382.72
2022-10-11T16:30:57.560Z,77384.81
2022-10-11T16:35:00.591Z,77399.34
2022-10-11T16:39:06.409Z,77411.78
2022-10-11T16:43:08.274Z,77432.56
2022-10-11T16:47:09.888Z,77440.88
2022-10-11T16:51:12.763Z,77453.34
2022-10-11T16:55:14.313Z,77480.34
2022-10-11T16:59:15.897Z,77480.34
2022-10-11T17:03:17.443Z,77494.88
2022-10-11T17:07:22.631Z,77513.56
2022-10-11T17:11:24.271Z,77528.09
2022-10-11T17:15:25.811Z,77534.31
2022-10-11T17:19:27.339Z,77536.41
2022-10-11T17:23:30.446Z,77553.03
2022-10-11T17:27:32.019Z,77563.41
2022-10-11T17:31:33.560Z,77569.63
2022-10-11T17:35:35.106Z,77580.03
2022-10-11T17:39:37.873Z,77594.56
2022-10-11T17:43:39.377Z,77602.88
2022-10-11T17:47:41.056Z,77623.63
2022-10-11T17:51:42.663Z,77623.63
2022-10-11T17:55:45.695Z,77627.78
2022-10-11T17:59:47.263Z,77629.88
2022-10-11T18:03:52.232Z,77636.09
2022-10-11T18:07:54.221Z,77648.56
2022-10-11T18:11:57.035Z,77652.72
2022-10-11T18:15:58.436Z,77661.00
2022-10-11T18:20:00.351Z,77652.72
2022-10-11T18:24:04.397Z,77661.00
2022-10-11T18:28:07.319Z,77667.25
2022-10-11T18:32:10.183Z,77671.41
2022-10-11T18:36:13.919Z,77681.78
2022-10-11T18:40:15.643Z,77692.16
2022-10-11T18:44:18.401Z,77694.25
2022-10-11T18:48:20.066Z,77702.56
2022-10-11T18:52:21.629Z,77706.72
2022-10-11T18:56:23.260Z,77721.25
2022-10-11T19:00:41.772Z,77725.41
2022-10-11T19:04:43.463Z,77735.78
2022-10-11T19:08:45.767Z,77735.78
2022-10-11T19:12:47.152Z,77733.72
2022-10-11T19:16:50.888Z,77744.09
2022-10-11T19:20:52.298Z,77746.16
2022-10-11T19:24:56.189Z,77752.41
2022-10-11T19:29:00.063Z,77756.56
2022-10-11T19:33:03.227Z,77752.41
2022-10-11T19:37:04.778Z,77764.88
2022-10-11T19:41:06.319Z,77771.09
2022-10-11T19:45:08.981Z,77769.00
2022-10-11T19:49:12.736Z,77773.16
2022-10-11T19:53:14.215Z,77769.00
2022-10-11T19:57:15.757Z,77766.94
2022-10-11T20:01:19.486Z,77773.16
2022-10-11T20:05:22.419Z,77773.16
2022-10-11T20:09:31.423Z,77777.31
2022-10-11T20:13:35.089Z,77781.47
2022-10-11T20:17:36.789Z,77793.94
2022-10-11T20:21:39.733Z,77796.03
2022-10-11T20:25:41.325Z,77796.03
2022-10-11T20:29:42.720Z,77793.94
2022-10-11T20:33:45.217Z,77800.19
2022-10-11T20:37:48.082Z,77810.56
2022-10-11T20:41:49.608Z,77802.25
2022-10-11T20:45:58.466Z,77783.56
2022-10-11T20:49:59.853Z,77816.78
2022-10-11T20:54:02.913Z,77825.09
2022-10-11T20:58:04.444Z,77839.63
2022-10-11T21:02:05.993Z,77847.94
2022-10-11T21:06:07.873Z,77843.78
2022-10-11T21:10:10.633Z,77841.72
2022-10-11T21:14:12.271Z,77827.19
2022-10-11T21:18:14.206Z,77843.78
2022-10-11T21:22:15.737Z,77847.94
2022-10-11T21:26:18.492Z,77852.09
2022-10-11T21:30:20.019Z,77868.72
2022-10-11T21:34:21.517Z,77879.09
2022-10-11T21:38:23.120Z,77881.19
2022-10-11T21:42:33.558Z,77883.25
2022-10-11T21:47:01.719Z,77889.47
2022-10-11T21:50:56.486Z,77891.56
2022-10-11T21:54:58.001Z,77904.03
2022-10-11T21:59:00.881Z,77901.94
2022-10-11T22:03:02.433Z,77916.47
2022-10-11T22:07:03.844Z,77922.72
2022-10-11T22:11:06.054Z,77912.34
2022-10-11T22:15:10.903Z,77920.63
2022-10-11T22:19:12.468Z,77939.34
2022-10-11T22:23:14.456Z,77945.56
2022-10-11T22:27:15.883Z,77960.09
2022-10-11T22:31:20.350Z,77964.25
2022-10-11T22:35:21.909Z,77972.56
2022-10-11T22:39:23.434Z,77968.41
2022-10-11T22:43:24.976Z,77960.09
2022-10-11T22:47:27.708Z,77976.72
2022-10-11T22:51:29.253Z,77968.41
2022-10-11T22:55:32.805Z,77947.63
2022-10-11T22:59:34.340Z,77964.25
2022-10-11T23:03:37.406Z,77964.25
2022-10-11T23:07:39.208Z,77964.25
2022-10-11T23:11:41.009Z,77966.34
2022-10-11T23:15:42.578Z,77997.50
2022-10-11T23:19:45.473Z,77999.56
2022-10-11T23:23:46.893Z,77985.03
2022-10-11T23:27:48.489Z,77989.19
2022-10-11T23:31:50.874Z,77985.03
2022-10-11T23:35:53.740Z,77999.56
2022-10-11T23:39:55.312Z,78007.88
2022-10-11T23:43:57.313Z,78001.66
2022-10-11T23:47:58.904Z,78005.81
2022-10-11T23:52:01.777Z,78007.88
2022-10-11T23:56:03.893Z,78030.72
